Tunis, Tunisia
Current Conditions -  °F | °C
As of 12:30 PM on Saturday 25 Oct 2014 (Local Time) from DTTA Reporting Station
Few Clouds Few Clouds  
Wind Chill: 25°   Ceiling: Unl
Heat Index: 26°   Visibility: 6mi
Dew Point: 12°   Wind: 8mph
Humidity: 44%   Direction: 320°NW
Pressure: 30.06"   Gusts: NA
Location:  36.84°N, 10.22°E
Report Text: DTTA 251130Z 32007KT 270V020 9999 FEW026 25/12 Q1018 NOSIG
Loading
Personal Weather Stations






























Interactive Weather Map
Tropical Storm Tracking
New forecast layout! Learn more

10-Day Weather Forecast

Advertisements
Track Severe Weather on mobile